createdAt,value
2016-10-16T00:00:34.063Z,929.22
2016-10-16T00:01:44.521Z,929.24
2016-10-16T00:02:55.122Z,929.16
2016-10-16T00:04:05.586Z,929.2
2016-10-16T00:05:16.034Z,929.2
2016-10-16T00:06:26.496Z,929.25
2016-10-16T00:07:37.341Z,929.25
2016-10-16T00:08:47.904Z,929.24
2016-10-16T00:09:58.360Z,929.24
2016-10-16T00:11:08.836Z,929.2
2016-10-16T00:12:19.678Z,929.2
2016-10-16T00:13:30.133Z,929.18
2016-10-16T00:14:40.686Z,929.22
2016-10-16T00:15:51.532Z,929.22
2016-10-16T00:17:01.993Z,929.26
2016-10-16T00:18:12.458Z,929.28
2016-10-16T00:19:22.920Z,929.28
2016-10-16T00:20:33.475Z,929.31
2016-10-16T00:21:43.922Z,929.3
2016-10-16T00:22:54.374Z,929.33
2016-10-16T00:24:04.867Z,929.37
2016-10-16T00:25:15.499Z,929.38
2016-10-16T00:26:26.107Z,929.39
2016-10-16T00:27:36.567Z,929.35
2016-10-16T00:28:47.033Z,929.36
2016-10-16T00:29:57.489Z,929.3
2016-10-16T00:33:15.923Z,929.27
2016-10-16T00:34:26.388Z,929.23
2016-10-16T00:35:36.838Z,929.18
2016-10-16T00:36:47.414Z,929.15
2016-10-16T00:37:58.139Z,929.18
2016-10-16T00:39:08.839Z,929.14
2016-10-16T00:40:19.456Z,929.17
2016-10-16T00:41:30.049Z,929.23
2016-10-16T00:42:40.626Z,929.21
2016-10-16T00:43:51.136Z,929.21
2016-10-16T00:45:01.607Z,929.23
2016-10-16T00:46:12.152Z,929.18
2016-10-16T00:47:23.069Z,929.14
2016-10-16T00:48:33.726Z,929.2
2016-10-16T00:49:44.232Z,929.17
2016-10-16T00:50:54.755Z,929.17
2016-10-16T00:52:05.326Z,929.17
2016-10-16T00:53:15.839Z,929.15
2016-10-16T00:54:26.875Z,929.17
2016-10-16T00:55:37.424Z,929.15
2016-10-16T00:56:47.987Z,929.14
2016-10-16T00:57:58.926Z,929.19
2016-10-16T00:59:09.450Z,929.17
2016-10-16T01:00:20.046Z,929.19
2016-10-16T01:01:30.614Z,929.21
2016-10-16T01:02:41.138Z,929.19
2016-10-16T01:03:51.693Z,929.2
2016-10-16T01:05:02.251Z,929.24
2016-10-16T01:06:12.946Z,929.25
2016-10-16T01:07:23.589Z,929.24
2016-10-16T01:08:34.109Z,929.3
2016-10-16T01:09:44.652Z,929.34
2016-10-16T01:10:55.207Z,929.32
2016-10-16T01:12:05.698Z,929.3
2016-10-16T01:13:16.221Z,929.28
2016-10-16T01:14:26.700Z,929.3
2016-10-16T01:15:37.240Z,929.27
2016-10-16T01:16:47.799Z,929.26
2016-10-16T01:17:58.417Z,929.26
2016-10-16T01:19:09.373Z,929.28
2016-10-16T01:20:19.910Z,929.28
2016-10-16T01:21:30.385Z,929.31
2016-10-16T01:22:40.894Z,929.27
2016-10-16T01:23:51.868Z,929.36
2016-10-16T01:25:02.714Z,929.37
2016-10-16T01:26:13.224Z,929.43
2016-10-16T01:27:23.715Z,929.43
2016-10-16T01:28:34.234Z,929.49
2016-10-16T01:29:44.859Z,929.47
2016-10-16T01:30:55.735Z,929.48
2016-10-16T01:32:06.242Z,929.5
2016-10-16T01:33:16.728Z,929.51
2016-10-16T01:34:27.232Z,929.52
2016-10-16T01:35:37.706Z,929.51
2016-10-16T01:36:48.247Z,929.5
2016-10-16T01:37:58.745Z,929.44
2016-10-16T01:39:09.200Z,929.43
2016-10-16T01:40:20.181Z,929.45
2016-10-16T01:41:30.800Z,929.46
2016-10-16T01:42:41.333Z,929.44
2016-10-16T01:43:51.852Z,929.43
2016-10-16T01:45:02.312Z,929.44
2016-10-16T01:46:12.819Z,929.41
2016-10-16T01:47:23.382Z,929.39
2016-10-16T01:48:33.884Z,929.37
2016-10-16T01:49:44.366Z,929.3
2016-10-16T01:50:54.887Z,929.26
2016-10-16T01:52:05.402Z,929.26
2016-10-16T01:53:16.010Z,929.24
2016-10-16T01:54:26.496Z,929.26
2016-10-16T01:55:36.969Z,929.22
2016-10-16T01:56:47.466Z,929.23
2016-10-16T01:57:58.029Z,929.23
2016-10-16T01:59:08.577Z,929.21
2016-10-16T02:00:19.061Z,929.2
2016-10-16T02:01:29.553Z,929.14
2016-10-16T02:02:40.075Z,929.12
2016-10-16T02:03:51.015Z,929.09
2016-10-16T02:05:01.594Z,929.08
2016-10-16T02:06:12.107Z,929.06
2016-10-16T02:07:22.564Z,929.02
2016-10-16T02:08:33.064Z,928.99
2016-10-16T02:09:43.560Z,928.96
2016-10-16T02:10:54.133Z,928.98
2016-10-16T02:12:04.637Z,928.95
2016-10-16T02:13:15.150Z,928.94
2016-10-16T02:14:25.674Z,929
2016-10-16T02:15:36.136Z,929
2016-10-16T02:16:46.636Z,929.01
2016-10-16T02:17:57.163Z,928.99
2016-10-16T02:19:07.677Z,928.96
2016-10-16T02:20:18.204Z,928.96
2016-10-16T02:21:28.712Z,928.91
2016-10-16T02:22:39.344Z,928.89
2016-10-16T02:23:50.275Z,928.85
2016-10-16T02:25:00.769Z,928.87
2016-10-16T02:26:11.762Z,928.92
2016-10-16T02:27:22.276Z,928.89
2016-10-16T02:28:32.845Z,928.9
2016-10-16T02:29:43.759Z,928.83
2016-10-16T02:30:54.245Z,928.83
2016-10-16T02:32:05.145Z,928.84
2016-10-16T02:33:15.608Z,928.82
2016-10-16T02:34:26.217Z,928.8
2016-10-16T02:35:36.677Z,928.8
2016-10-16T02:36:47.129Z,928.72
2016-10-16T02:37:57.615Z,928.69
2016-10-16T02:39:08.067Z,928.68
2016-10-16T02:40:18.523Z,928.62
2016-10-16T02:41:28.979Z,928.59
2016-10-16T02:42:39.539Z,928.56
2016-10-16T02:43:50.059Z,928.54
2016-10-16T02:45:00.555Z,928.51
2016-10-16T02:46:11.129Z,928.52
2016-10-16T02:47:21.668Z,928.45
2016-10-16T02:48:32.111Z,928.43
2016-10-16T02:49:42.637Z,928.4
2016-10-16T02:50:53.112Z,928.4
2016-10-16T02:52:03.692Z,928.41
2016-10-16T02:53:14.197Z,928.4
2016-10-16T02:54:24.696Z,928.43
2016-10-16T02:55:35.169Z,928.42
2016-10-16T02:56:45.676Z,928.45
2016-10-16T02:57:56.281Z,928.46
2016-10-16T02:59:06.815Z,928.47
2016-10-16T03:00:17.315Z,928.49
2016-10-16T03:01:27.811Z,928.48
2016-10-16T03:02:38.296Z,928.44
2016-10-16T03:03:48.764Z,928.45
2016-10-16T03:04:59.274Z,928.44
2016-10-16T03:06:09.803Z,928.41
2016-10-16T03:07:20.308Z,928.42
2016-10-16T03:08:30.812Z,928.36
2016-10-16T03:09:41.403Z,928.35
2016-10-16T03:10:51.953Z,928.28
2016-10-16T03:12:02.420Z,928.29
2016-10-16T03:13:12.937Z,928.28
2016-10-16T03:14:23.421Z,928.29
2016-10-16T03:15:34.016Z,928.28
2016-10-16T03:16:44.504Z,928.26
2016-10-16T03:17:55.059Z,928.27
2016-10-16T03:19:05.573Z,928.25
2016-10-16T03:20:16.050Z,928.18
2016-10-16T03:21:27.134Z,928.18
2016-10-16T03:22:37.649Z,928.14
2016-10-16T03:23:48.541Z,928.07
2016-10-16T03:24:59.014Z,928.07
2016-10-16T03:26:10.791Z,928.04
2016-10-16T03:27:21.289Z,927.99
2016-10-16T03:28:31.764Z,928
2016-10-16T03:29:42.245Z,927.96
2016-10-16T03:30:52.708Z,927.97
2016-10-16T03:32:03.244Z,927.93
2016-10-16T03:33:13.856Z,927.97
2016-10-16T03:34:24.344Z,927.96
2016-10-16T03:35:34.844Z,927.93
2016-10-16T03:36:45.300Z,927.85
2016-10-16T03:37:55.762Z,927.89
2016-10-16T03:39:06.375Z,927.86
2016-10-16T03:40:16.839Z,927.81
2016-10-16T03:41:27.337Z,927.77
2016-10-16T03:42:37.844Z,927.76
2016-10-16T03:43:48.297Z,927.73
2016-10-16T03:44:59.262Z,927.71
2016-10-16T03:46:10.167Z,927.69
2016-10-16T03:47:21.013Z,927.65
2016-10-16T03:48:31.506Z,927.64
2016-10-16T03:49:41.959Z,927.64
2016-10-16T03:50:52.925Z,927.58
2016-10-16T03:52:03.410Z,927.62
2016-10-16T03:53:13.862Z,927.53
2016-10-16T03:54:24.394Z,927.59
2016-10-16T03:55:34.859Z,927.58
2016-10-16T03:56:45.479Z,927.54
2016-10-16T03:57:55.999Z,927.57
2016-10-16T03:59:06.475Z,927.51
2016-10-16T04:00:16.988Z,927.52
2016-10-16T04:01:27.488Z,927.47
2016-10-16T04:02:38.086Z,927.45
2016-10-16T04:03:48.566Z,927.44
2016-10-16T04:04:59.087Z,927.33
2016-10-16T04:06:09.546Z,927.33
2016-10-16T04:07:20.051Z,927.33
2016-10-16T04:08:30.714Z,927.25
2016-10-16T04:09:41.241Z,927.2
2016-10-16T04:10:51.762Z,927.16
2016-10-16T04:12:02.761Z,927.1
2016-10-16T04:13:13.279Z,927.15
2016-10-16T04:14:23.836Z,927.12
2016-10-16T04:15:34.404Z,927.15
2016-10-16T04:16:44.979Z,927.12
2016-10-16T04:17:56.307Z,927.12
2016-10-16T04:19:06.849Z,927.13
2016-10-16T04:20:17.493Z,927.13
2016-10-16T04:21:28.016Z,927.11
2016-10-16T04:22:38.523Z,927.07
2016-10-16T04:23:49.056Z,927.09
2016-10-16T04:24:59.624Z,927.08
2016-10-16T04:26:10.229Z,927.08
2016-10-16T04:27:21.140Z,927.09
2016-10-16T04:28:31.653Z,927.1
2016-10-16T04:29:42.206Z,927.07
2016-10-16T04:30:52.761Z,927.08
2016-10-16T04:32:03.416Z,927.1
2016-10-16T04:33:14.369Z,927.13
2016-10-16T04:34:25.255Z,927.08
2016-10-16T04:35:35.771Z,927.09
2016-10-16T04:36:46.348Z,927.08
2016-10-16T04:37:56.884Z,927.08
2016-10-16T04:39:07.391Z,927.11
2016-10-16T04:40:17.903Z,927.12
2016-10-16T04:41:28.433Z,927.13
2016-10-16T04:42:38.911Z,927.1
2016-10-16T04:43:49.556Z,927.1
2016-10-16T04:45:00.082Z,927.07
2016-10-16T04:46:10.651Z,927.05
2016-10-16T04:47:21.124Z,927.02
2016-10-16T04:48:31.638Z,927.02
2016-10-16T04:49:42.268Z,927
2016-10-16T04:50:52.764Z,926.99
2016-10-16T04:52:03.294Z,926.96
2016-10-16T04:53:13.856Z,926.96
2016-10-16T04:54:24.349Z,926.94
2016-10-16T04:55:34.982Z,926.91
2016-10-16T04:56:45.551Z,926.91
2016-10-16T04:57:56.093Z,926.9
2016-10-16T04:59:06.687Z,926.93
2016-10-16T05:00:17.191Z,926.92
2016-10-16T05:01:27.750Z,926.95
2016-10-16T05:02:38.244Z,926.93
2016-10-16T05:03:48.792Z,926.93
2016-10-16T05:04:59.303Z,926.97
2016-10-16T05:06:09.857Z,926.97
2016-10-16T05:07:20.533Z,926.97
2016-10-16T05:08:31.079Z,926.98
2016-10-16T05:09:41.610Z,926.94
2016-10-16T05:10:52.106Z,926.97
2016-10-16T05:12:02.603Z,927
2016-10-16T05:13:13.245Z,926.99
2016-10-16T05:14:23.754Z,926.99
2016-10-16T05:15:34.236Z,926.98
2016-10-16T05:16:44.759Z,926.97
2016-10-16T05:17:55.707Z,926.97
2016-10-16T05:19:06.296Z,926.96
2016-10-16T05:20:16.757Z,926.93
2016-10-16T05:21:27.242Z,926.96
2016-10-16T05:22:37.758Z,926.98
2016-10-16T05:23:48.232Z,926.97
2016-10-16T05:24:58.812Z,926.98
2016-10-16T05:26:09.295Z,926.91
2016-10-16T05:27:19.803Z,926.95
2016-10-16T05:28:30.317Z,926.91
2016-10-16T05:29:40.839Z,926.93
2016-10-16T05:30:51.397Z,926.89
2016-10-16T05:32:01.838Z,926.87
2016-10-16T05:33:12.344Z,926.83
2016-10-16T05:34:22.798Z,926.84
2016-10-16T05:35:33.290Z,926.84
2016-10-16T05:36:43.771Z,926.85
2016-10-16T05:37:54.237Z,926.79
2016-10-16T05:39:05.170Z,926.79
2016-10-16T05:40:15.704Z,926.76
2016-10-16T05:41:26.252Z,926.74
2016-10-16T05:42:36.871Z,926.79
2016-10-16T05:43:47.433Z,926.79
2016-10-16T05:44:58.378Z,926.79
2016-10-16T05:46:08.851Z,926.79
2016-10-16T05:47:19.379Z,926.8
2016-10-16T05:48:30.394Z,926.79
2016-10-16T05:49:40.876Z,926.84
2016-10-16T05:50:51.440Z,926.84
2016-10-16T05:52:01.971Z,926.82
2016-10-16T05:53:12.541Z,926.8
2016-10-16T05:54:23.139Z,926.76
2016-10-16T05:55:33.666Z,926.78
2016-10-16T05:56:44.160Z,926.74
2016-10-16T05:57:54.736Z,926.73
2016-10-16T05:59:05.249Z,926.72
2016-10-16T06:00:15.829Z,926.72
2016-10-16T06:01:26.391Z,926.72
2016-10-16T06:02:36.898Z,926.73
2016-10-16T06:03:47.459Z,926.72
2016-10-16T06:04:58.028Z,926.75
2016-10-16T06:06:08.707Z,926.72
2016-10-16T06:07:19.273Z,926.74
2016-10-16T06:08:29.835Z,926.77
2016-10-16T06:09:40.386Z,926.77
2016-10-16T06:10:50.904Z,926.8
2016-10-16T06:12:01.573Z,926.8
2016-10-16T06:13:12.076Z,926.84
2016-10-16T06:14:22.568Z,926.86
2016-10-16T06:15:33.090Z,926.84
2016-10-16T06:16:43.560Z,926.82
2016-10-16T06:17:54.171Z,926.83
2016-10-16T06:19:04.704Z,926.87
2016-10-16T06:20:15.218Z,926.9
2016-10-16T06:21:26.109Z,926.93
2016-10-16T06:22:37.083Z,926.97
2016-10-16T06:23:47.571Z,926.97
2016-10-16T06:24:58.072Z,926.95
2016-10-16T06:26:08.558Z,926.96
2016-10-16T06:27:19.068Z,926.97
2016-10-16T06:28:29.571Z,926.99
2016-10-16T06:29:40.142Z,926.97
2016-10-16T06:30:50.645Z,926.98
2016-10-16T06:32:01.584Z,926.97
2016-10-16T06:33:12.092Z,926.97
2016-10-16T06:34:22.590Z,926.96
2016-10-16T06:35:33.701Z,926.91
2016-10-16T06:36:44.186Z,926.89
2016-10-16T06:37:54.708Z,926.9
2016-10-16T06:39:05.206Z,926.9
2016-10-16T06:40:15.684Z,926.87
2016-10-16T06:41:26.266Z,926.87
2016-10-16T06:42:36.774Z,926.87
2016-10-16T06:43:47.295Z,926.84
2016-10-16T06:44:57.793Z,926.84
2016-10-16T06:46:08.257Z,926.88
2016-10-16T06:47:18.765Z,926.91
2016-10-16T06:48:29.272Z,926.88
2016-10-16T06:49:39.776Z,926.86
2016-10-16T06:50:50.270Z,926.9
2016-10-16T06:52:00.761Z,926.91
2016-10-16T06:53:12.367Z,926.9
2016-10-16T06:54:22.846Z,926.91
2016-10-16T06:55:33.307Z,926.92
2016-10-16T06:56:44.281Z,926.95
2016-10-16T06:57:54.800Z,926.91
2016-10-16T06:59:05.411Z,926.91
2016-10-16T07:00:15.901Z,926.9
2016-10-16T07:01:26.407Z,926.89
2016-10-16T07:02:36.868Z,926.9
2016-10-16T07:03:47.346Z,926.93
2016-10-16T07:04:58.445Z,926.86
2016-10-16T07:06:09.330Z,926.89
2016-10-16T07:07:19.792Z,926.86
2016-10-16T07:08:30.264Z,926.89
2016-10-16T07:09:40.802Z,926.88
2016-10-16T07:10:51.694Z,926.91
2016-10-16T07:12:02.172Z,926.85
2016-10-16T07:13:12.717Z,926.89
2016-10-16T07:14:23.206Z,926.84
2016-10-16T07:15:33.704Z,926.87
2016-10-16T07:16:44.718Z,926.85
2016-10-16T07:17:55.224Z,926.84
2016-10-16T07:19:05.706Z,926.84
2016-10-16T07:20:16.232Z,926.83
2016-10-16T07:21:26.736Z,926.75
2016-10-16T07:22:37.308Z,926.8
2016-10-16T07:23:47.803Z,926.81
2016-10-16T07:24:58.352Z,926.79
2016-10-16T07:26:08.845Z,926.82
2016-10-16T07:27:19.324Z,926.85
2016-10-16T07:28:29.905Z,926.83
2016-10-16T07:29:40.889Z,926.9
2016-10-16T07:30:52.180Z,926.88
2016-10-16T07:32:02.642Z,926.87
2016-10-16T07:33:13.139Z,926.92
2016-10-16T07:34:24.002Z,926.95
2016-10-16T07:35:34.960Z,926.99
2016-10-16T07:36:45.438Z,926.98
2016-10-16T07:37:55.935Z,927
2016-10-16T07:39:06.463Z,927.03
2016-10-16T07:40:17.065Z,927.01
2016-10-16T07:41:28.079Z,927.04
2016-10-16T07:42:38.571Z,927.02
2016-10-16T07:43:49.032Z,927.07
2016-10-16T07:44:59.563Z,927.1
2016-10-16T07:46:10.166Z,927.1
2016-10-16T07:47:20.628Z,927.13
2016-10-16T07:48:31.154Z,927.13
2016-10-16T07:49:41.615Z,927.17
2016-10-16T07:50:52.085Z,927.12
2016-10-16T07:52:02.726Z,927.17
2016-10-16T07:53:13.303Z,927.2
2016-10-16T07:54:24.343Z,927.18
2016-10-16T07:55:34.895Z,927.25
2016-10-16T07:56:45.420Z,927.27
2016-10-16T07:57:55.906Z,927.27
2016-10-16T07:59:06.404Z,927.3
2016-10-16T08:00:17.362Z,927.28
2016-10-16T08:01:27.863Z,927.3
2016-10-16T08:02:38.454Z,927.33
2016-10-16T08:03:49.090Z,927.28
2016-10-16T08:04:59.640Z,927.31
2016-10-16T08:06:10.152Z,927.29
2016-10-16T08:07:20.667Z,927.31
2016-10-16T08:08:31.184Z,927.31
2016-10-16T08:09:41.820Z,927.27
2016-10-16T08:10:52.370Z,927.31
2016-10-16T08:12:02.945Z,927.31
2016-10-16T08:13:13.449Z,927.3
2016-10-16T08:14:23.981Z,927.35
2016-10-16T08:15:34.647Z,927.34
2016-10-16T08:16:45.574Z,927.34
2016-10-16T08:17:56.538Z,927.35
2016-10-16T08:19:07.074Z,927.34
2016-10-16T08:20:17.629Z,927.29
2016-10-16T08:21:28.174Z,927.33
2016-10-16T08:22:38.686Z,927.3
2016-10-16T08:23:49.242Z,927.35
2016-10-16T08:24:59.805Z,927.34
2016-10-16T08:26:10.294Z,927.34
2016-10-16T08:27:20.925Z,927.35
2016-10-16T08:28:31.483Z,927.35
2016-10-16T08:29:42.025Z,927.4
2016-10-16T08:30:52.564Z,927.37
2016-10-16T08:32:03.084Z,927.35
2016-10-16T08:33:13.749Z,927.33
2016-10-16T08:34:24.242Z,927.34
2016-10-16T08:35:34.797Z,927.36
2016-10-16T08:36:45.298Z,927.38
2016-10-16T08:37:55.813Z,927.42
2016-10-16T08:39:06.435Z,927.43
2016-10-16T08:40:17.519Z,927.45
2016-10-16T08:41:28.027Z,927.48
2016-10-16T08:42:38.546Z,927.44
2016-10-16T08:43:49.062Z,927.45
2016-10-16T08:44:59.710Z,927.44
2016-10-16T08:46:10.287Z,927.42
2016-10-16T08:47:21.261Z,927.42
2016-10-16T08:48:31.796Z,927.44
2016-10-16T08:49:42.338Z,927.46
2016-10-16T08:50:52.986Z,927.43
2016-10-16T08:52:03.979Z,927.5
2016-10-16T08:53:14.558Z,927.53
2016-10-16T08:54:25.095Z,927.57
2016-10-16T08:55:35.592Z,927.57
2016-10-16T08:56:46.049Z,927.54
2016-10-16T08:57:56.509Z,927.59
2016-10-16T08:59:06.953Z,927.58
2016-10-16T09:00:17.414Z,927.57
2016-10-16T09:01:27.875Z,927.55
2016-10-16T09:02:38.438Z,927.58
2016-10-16T09:03:48.896Z,927.63
2016-10-16T09:04:59.352Z,927.65
2016-10-16T09:06:09.812Z,927.61
2016-10-16T09:07:20.274Z,927.65
2016-10-16T09:08:30.824Z,927.68
2016-10-16T09:09:41.276Z,927.67
2016-10-16T09:10:51.730Z,927.69
2016-10-16T09:12:02.197Z,927.71
2016-10-16T09:13:12.682Z,927.68
2016-10-16T09:14:23.252Z,927.69
2016-10-16T09:15:33.707Z,927.67
2016-10-16T09:16:44.166Z,927.7
2016-10-16T09:17:54.619Z,927.7
2016-10-16T09:19:05.078Z,927.72
2016-10-16T09:20:15.636Z,927.74
2016-10-16T09:21:26.101Z,927.78
2016-10-16T09:22:36.559Z,927.81
2016-10-16T09:23:47.403Z,927.86
2016-10-16T09:24:57.860Z,927.9
2016-10-16T09:26:08.415Z,927.94
2016-10-16T09:27:18.871Z,927.97
2016-10-16T09:28:29.341Z,928
2016-10-16T09:29:40.273Z,927.98
2016-10-16T09:30:50.789Z,928
2016-10-16T09:32:01.307Z,928.06
2016-10-16T09:33:11.790Z,928.03
2016-10-16T09:34:22.265Z,928.02
2016-10-16T09:35:32.753Z,928.04
2016-10-16T09:36:43.294Z,928.05
2016-10-16T09:37:53.885Z,928.07
2016-10-16T09:39:04.385Z,928.1
2016-10-16T09:40:14.880Z,928.15
2016-10-16T09:41:25.779Z,928.22
2016-10-16T09:42:36.274Z,928.3
2016-10-16T09:43:46.830Z,928.34
2016-10-16T09:44:57.306Z,928.42
2016-10-16T09:46:07.780Z,928.43
2016-10-16T09:47:18.308Z,928.45
2016-10-16T09:48:28.811Z,928.5
2016-10-16T09:49:39.398Z,928.53
2016-10-16T09:50:49.910Z,928.53
2016-10-16T09:52:00.372Z,928.6
2016-10-16T09:53:10.891Z,928.58
2016-10-16T09:54:21.852Z,928.48
2016-10-16T09:55:32.490Z,928.49
2016-10-16T09:56:43.014Z,928.53
2016-10-16T09:57:53.491Z,928.65
2016-10-16T09:59:03.995Z,928.73
2016-10-16T10:00:14.544Z,928.73
2016-10-16T10:01:25.061Z,928.74
2016-10-16T10:02:35.574Z,928.75
2016-10-16T10:03:46.088Z,928.72
2016-10-16T10:04:56.616Z,928.73
2016-10-16T10:06:07.146Z,928.77
2016-10-16T10:07:17.805Z,928.77
2016-10-16T10:08:28.344Z,928.77
2016-10-16T10:09:38.855Z,928.81
2016-10-16T10:10:49.324Z,928.8
2016-10-16T10:11:59.841Z,928.79
2016-10-16T10:13:10.426Z,928.85
2016-10-16T10:14:20.980Z,928.83
2016-10-16T10:15:31.475Z,928.85
2016-10-16T10:16:41.933Z,928.9
2016-10-16T10:17:52.462Z,928.88
2016-10-16T10:19:03.060Z,928.92
2016-10-16T10:20:13.571Z,928.95
2016-10-16T10:21:24.032Z,928.98
2016-10-16T10:22:34.565Z,929.08
2016-10-16T10:23:45.084Z,929.14
2016-10-16T10:24:55.589Z,929.11
2016-10-16T10:26:06.058Z,929.08
2016-10-16T10:27:16.954Z,929.13
2016-10-16T10:28:27.461Z,929.11
2016-10-16T10:29:37.975Z,929.18
2016-10-16T10:30:48.566Z,929.18
2016-10-16T10:31:59.457Z,929.2
2016-10-16T10:33:09.953Z,929.18
2016-10-16T10:34:20.453Z,929.18
2016-10-16T10:35:30.953Z,929.21
2016-10-16T10:36:41.563Z,929.18
2016-10-16T10:37:52.434Z,929.19
2016-10-16T10:39:02.971Z,929.17
2016-10-16T10:40:13.465Z,929.14
2016-10-16T10:41:23.943Z,929.02
2016-10-16T10:42:34.442Z,929.03
2016-10-16T10:43:44.921Z,929.03
2016-10-16T10:44:55.473Z,929.07
2016-10-16T10:46:06.026Z,929.06
2016-10-16T10:47:17.055Z,929.1
2016-10-16T10:48:27.634Z,929.08
2016-10-16T10:49:38.154Z,929.19
2016-10-16T10:50:48.672Z,929.23
2016-10-16T10:51:59.203Z,929.23
2016-10-16T10:53:09.699Z,929.21
2016-10-16T10:54:20.270Z,929.35
2016-10-16T10:55:30.765Z,929.47
2016-10-16T10:56:41.260Z,929.6
2016-10-16T10:57:51.756Z,929.81
2016-10-16T10:59:02.285Z,929.99
2016-10-16T11:00:12.880Z,930.5
2016-10-16T11:01:23.389Z,931.35
2016-10-16T11:02:33.935Z,931.68
2016-10-16T11:03:44.429Z,932.28
2016-10-16T11:04:54.943Z,932.82
2016-10-16T11:06:05.505Z,932.78
2016-10-16T11:07:15.978Z,932.75
2016-10-16T11:08:26.454Z,932.74
2016-10-16T11:09:36.947Z,932.55
2016-10-16T11:10:47.474Z,932.53
2016-10-16T11:11:58.103Z,932.66
2016-10-16T11:13:09.496Z,932.68
2016-10-16T11:14:20.039Z,932.69
2016-10-16T11:15:30.544Z,932.86
2016-10-16T11:16:41.064Z,932.9
2016-10-16T11:17:51.629Z,933.2
2016-10-16T11:19:02.160Z,933.36
2016-10-16T11:20:12.662Z,933.15
2016-10-16T11:21:23.215Z,933.27
2016-10-16T11:22:33.726Z,933.66
2016-10-16T11:23:44.732Z,933.91
2016-10-16T11:24:55.231Z,933.87
2016-10-16T11:26:05.755Z,934
2016-10-16T11:27:16.260Z,934.06
2016-10-16T11:28:26.803Z,934.16
2016-10-16T11:29:37.275Z,934.32
2016-10-16T11:30:47.765Z,934.49
2016-10-16T11:31:58.250Z,934.57
2016-10-16T11:33:08.826Z,934.53
2016-10-16T11:34:19.323Z,934.45
2016-10-16T11:35:29.913Z,934.91
2016-10-16T11:36:40.409Z,934.84
2016-10-16T11:37:50.893Z,934.94
2016-10-16T11:39:01.396Z,934.81
2016-10-16T11:40:11.920Z,935.29
2016-10-16T11:41:22.512Z,935.64
2016-10-16T11:42:33.019Z,935.72
2016-10-16T11:43:43.918Z,935.99
2016-10-16T11:44:54.841Z,935.53
2016-10-16T11:46:05.347Z,935.2
2016-10-16T11:47:15.935Z,936.07
2016-10-16T11:48:26.441Z,935.91
2016-10-16T11:49:36.941Z,936.04
2016-10-16T11:50:47.436Z,937.1
2016-10-16T11:51:57.940Z,936.87
2016-10-16T11:53:08.593Z,937.75
2016-10-16T11:54:19.108Z,937.9
2016-10-16T11:55:29.605Z,937.94
2016-10-16T11:56:40.148Z,938.46
2016-10-16T11:57:50.635Z,938.88
2016-10-16T11:59:01.710Z,939.38
2016-10-16T12:00:12.204Z,939.92
2016-10-16T12:01:23.160Z,940.2
2016-10-16T12:02:33.694Z,940.54
2016-10-16T12:03:44.240Z,940.75
2016-10-16T12:04:54.926Z,940.97
2016-10-16T12:06:05.415Z,941.8
2016-10-16T12:07:16.301Z,942.19
2016-10-16T12:08:26.812Z,942.61
2016-10-16T12:09:37.307Z,943.4
2016-10-16T12:10:47.830Z,943.58
2016-10-16T12:11:59.275Z,944.12
2016-10-16T12:13:09.828Z,945.02
2016-10-16T12:14:20.368Z,944.91
2016-10-16T12:15:30.906Z,945.91
2016-10-16T12:16:41.566Z,946.12
2016-10-16T12:17:52.261Z,946.23
2016-10-16T12:19:02.813Z,946.63
2016-10-16T12:20:13.365Z,947.31
2016-10-16T12:21:23.937Z,948.23
2016-10-16T12:22:34.635Z,948.24
2016-10-16T12:23:45.196Z,948.48
2016-10-16T12:24:55.802Z,949.68
2016-10-16T12:26:06.381Z,949.6
2016-10-16T12:27:16.969Z,949.4
2016-10-16T12:28:27.520Z,948.38
2016-10-16T12:29:38.006Z,949.17
2016-10-16T12:30:48.602Z,950.32
2016-10-16T12:31:59.126Z,949.89
2016-10-16T12:33:10.140Z,948.48
2016-10-16T12:34:20.779Z,948.27
2016-10-16T12:35:31.353Z,949.09
2016-10-16T12:36:41.949Z,946.81
2016-10-16T12:37:52.522Z,946.79
2016-10-16T12:39:03.125Z,944.21
2016-10-16T12:40:13.759Z,947.36
2016-10-16T12:41:24.300Z,947.51
2016-10-16T12:42:34.856Z,946.75
2016-10-16T12:43:45.437Z,946.92
2016-10-16T12:44:56.011Z,947.7
2016-10-16T12:46:06.652Z,946.4
2016-10-16T12:47:17.216Z,945.17
2016-10-16T12:48:27.772Z,944.88
2016-10-16T12:49:38.319Z,946.52
2016-10-16T12:50:48.857Z,947.21
2016-10-16T12:51:59.499Z,946.75
2016-10-16T12:53:10.102Z,946.08
2016-10-16T12:54:20.672Z,944.51
2016-10-16T12:55:31.225Z,941.9
2016-10-16T12:56:41.764Z,943.08
2016-10-16T12:57:52.372Z,942.25
2016-10-16T12:59:02.925Z,940.91
2016-10-16T13:00:13.897Z,938.23
2016-10-16T13:01:24.822Z,937.46
2016-10-16T13:02:35.356Z,935.79
2016-10-16T13:03:45.903Z,934.58
2016-10-16T13:04:56.470Z,933.43
2016-10-16T13:06:06.978Z,932.82
2016-10-16T13:07:17.501Z,932.28
2016-10-16T13:08:28.422Z,931.64
2016-10-16T13:09:39.075Z,931.66
2016-10-16T13:10:49.641Z,931.55
2016-10-16T13:12:00.205Z,931.19
2016-10-16T13:13:10.769Z,931.02
2016-10-16T13:14:21.357Z,930.92
2016-10-16T13:15:32.827Z,930.56
2016-10-16T13:16:43.372Z,930.33
2016-10-16T13:17:53.887Z,929.51
2016-10-16T13:19:04.782Z,929.8
2016-10-16T13:20:15.303Z,929.56
2016-10-16T13:21:25.879Z,929.59
2016-10-16T13:22:36.364Z,929.51
2016-10-16T13:23:46.889Z,929.32
2016-10-16T13:24:57.451Z,929.25
2016-10-16T13:26:07.972Z,929.21
2016-10-16T13:27:18.503Z,929.05
2016-10-16T13:28:29.035Z,929.1
2016-10-16T13:29:39.528Z,929.08
2016-10-16T13:30:50.088Z,929.04
2016-10-16T13:32:00.592Z,928.61
2016-10-16T13:33:11.197Z,929.02
2016-10-16T13:34:21.721Z,929.06
2016-10-16T13:35:32.221Z,928.79
2016-10-16T13:36:42.767Z,928.7
2016-10-16T13:37:53.277Z,928.63
2016-10-16T13:39:04.343Z,928.56
2016-10-16T13:40:14.864Z,928.49
2016-10-16T13:41:26.683Z,928.37
2016-10-16T13:42:37.214Z,928.31
2016-10-16T13:43:47.722Z,928.21
2016-10-16T13:44:58.325Z,928.09
2016-10-16T13:46:08.821Z,928.06
2016-10-16T13:47:19.374Z,928.01
2016-10-16T13:48:29.895Z,927.95
2016-10-16T13:49:40.392Z,927.96
2016-10-16T13:50:50.906Z,927.94
2016-10-16T13:52:01.470Z,927.86
2016-10-16T13:53:12.548Z,927.81
2016-10-16T13:54:23.106Z,927.77
2016-10-16T13:55:33.703Z,927.73
2016-10-16T13:56:44.391Z,927.65
2016-10-16T13:57:54.965Z,927.67
2016-10-16T13:59:05.478Z,927.7
2016-10-16T14:00:16.060Z,927.63
2016-10-16T14:01:26.655Z,927.64
2016-10-16T14:02:37.258Z,927.6
2016-10-16T14:03:47.754Z,927.56
2016-10-16T14:04:58.241Z,927.58
2016-10-16T14:06:08.843Z,927.5
2016-10-16T14:07:19.452Z,927.53
2016-10-16T14:08:30.127Z,927.51
2016-10-16T14:09:40.690Z,927.47
2016-10-16T14:10:51.285Z,927.43
2016-10-16T14:12:01.853Z,927.36
2016-10-16T14:13:12.443Z,927.39
2016-10-16T14:14:23.004Z,927.42
2016-10-16T14:15:33.585Z,927.4
2016-10-16T14:16:44.118Z,927.37
2016-10-16T14:17:54.695Z,927.32
2016-10-16T14:19:05.289Z,927.32
2016-10-16T14:20:15.947Z,927.29
2016-10-16T14:21:26.503Z,927.25
2016-10-16T14:22:37.040Z,927.3
2016-10-16T14:23:47.618Z,927.28
2016-10-16T14:24:58.586Z,927.27
2016-10-16T14:26:09.236Z,927.19
2016-10-16T14:27:19.755Z,927.24
2016-10-16T14:28:30.330Z,927.18
2016-10-16T14:29:40.867Z,927.17
2016-10-16T14:30:51.403Z,927.16
2016-10-16T14:32:02.089Z,927.25
2016-10-16T14:33:12.659Z,927.25
2016-10-16T14:34:23.183Z,927.33
2016-10-16T14:35:34.158Z,927.38
2016-10-16T14:36:45.154Z,927.4
2016-10-16T14:37:55.670Z,927.39
2016-10-16T14:39:06.263Z,927.33
2016-10-16T14:40:17.320Z,927.35
2016-10-16T14:41:28.670Z,927.29
2016-10-16T14:42:39.291Z,927.29
2016-10-16T14:43:49.922Z,927.28
2016-10-16T14:45:00.478Z,927.27
2016-10-16T14:46:11.023Z,927.29
2016-10-16T14:47:21.616Z,927.3